Time;durP1;ratioP1;P1;durP2;ratioP2;P2;SDS_P1;SDS_P2;PMS_P1;PMS_P2;Temp;Humidity;BMP_temperature;BMP_pressure;BME280_temperature;BME280_humidity;BME280_pressure;Samples;Min_cycle;Max_cycle;Signal;HPM_P1;HPM_P2
2021/12/17 00:01:37;;;;;;;;;;;;;;;;;;2212903;66;2434;-70
2021/12/17 00:04:26;;;;;;;;;;;;;;;;;;2216238;66;1936;-71
2021/12/17 00:06:59;;;;;;;;;;;;;;;;;;2216524;66;1187;-70
2021/12/17 00:09:32;;;;;;;;;;;;;;;;;;2211817;59;1597;-71
2021/12/17 00:12:11;;;;;;;;;;;;;;;;;;2216328;58;2038;-70
2021/12/17 00:14:47;;;;;;;;;;;;;;;;;;2215420;59;1985;-70
2021/12/17 00:17:25;;;;;;;;;;;;;;;;;;2215562;66;1208;-71
2021/12/17 00:20:24;;;;;;;;;;;;;;;;;;2215976;59;1418;-70
2021/12/17 00:40:26;;;;;;;;;;;;;;;;;;2216723;66;1182;-70
2021/12/17 00:48:41;;;;;;;;;;;;;;;;;;2216211;66;1146;-70
2021/12/17 00:54:08;;;;;;;;;;;;;;;;;;2215261;59;1120;-71
2021/12/17 00:56:41;;;;;;;;;;;;;;;;;;2216748;58;1293;-70
2021/12/17 00:59:14;;;;;;;;;;;;;;;;;;2215958;59;1437;-70
2021/12/17 01:01:51;;;;;;;;;;;;;;;;;;2216045;59;1219;-70
2021/12/17 01:04:24;;;;;;;;;;;;;;;;;;2215907;66;1936;-71
2021/12/17 01:06:57;;;;;;;;;;;;;;;;;;2216979;66;1233;-70
2021/12/17 01:09:31;;;;;;;;;;;;;;;;;;2215131;59;1468;-70
2021/12/17 01:12:04;;;;;;;;;;;;;;;;;;2216622;58;1626;-70
2021/12/17 01:14:38;;;;;;;;;;;;;;;;;;2216375;59;1714;-70
2021/12/17 01:17:14;;;;;;;;;;;;;;;;;;2216379;66;1237;-70
2021/12/17 01:20:16;;;;;;;;;;;;;;;;;;2216029;58;1451;-70
2021/12/17 01:25:50;;;;;;;;;;;;;;;;;;2214754;66;1933;-70
2021/12/17 01:37:08;;;;;;;;;;;;;;;;;;2217758;66;1170;-70
2021/12/17 01:42:33;;;;;;;;;;;;;;;;;;2210370;66;1347;-71
2021/12/17 01:45:06;;;;;;;;;;;;;;;;;;2216449;66;1933;-71
2021/12/17 01:47:40;;;;;;;;;;;;;;;;;;2216139;59;1085;-70
2021/12/17 01:56:16;;;;;;;;;;;;;;;;;;2216567;66;1177;-70
2021/12/17 02:01:39;;;;;;;;;;;;;;;;;;2215824;59;1280;-70
2021/12/17 02:04:12;;;;;;;;;;;;;;;;;;2216062;66;1933;-70
2021/12/17 02:06:48;;;;;;;;;;;;;;;;;;2216416;59;1179;-70
2021/12/17 02:12:41;;;;;;;;;;;;;;;;;;2194468;59;1941;-72
2021/12/17 02:29:49;;;;;;;;;;;;;;;;;;2200629;67;1471;-72
2021/12/17 02:32:25;;;;;;;;;;;;;;;;;;2198463;59;1897;-72
2021/12/17 02:35:20;;;;;;;;;;;;;;;;;;2198131;59;1069;-72
2021/12/17 02:37:56;;;;;;;;;;;;;;;;;;2199169;67;1119;-72
2021/12/17 02:46:06;;;;;;;;;;;;;;;;;;2198011;59;1948;-72
2021/12/17 02:48:42;;;;;;;;;;;;;;;;;;2199809;59;1091;-72
2021/12/17 02:51:15;;;;;;;;;;;;;;;;;;2197768;59;1760;-72
2021/12/17 02:53:51;;;;;;;;;;;;;;;;;;2198371;67;1231;-71
2021/12/17 02:56:24;;;;;;;;;;;;;;;;;;2199207;67;1243;-72
2021/12/17 02:58:58;;;;;;;;;;;;;;;;;;2198645;59;1422;-72
2021/12/17 03:01:31;;;;;;;;;;;;;;;;;;2198765;59;1236;-72
2021/12/17 03:04:04;;;;;;;;;;;;;;;;;;2198672;67;1926;-72
2021/12/17 03:06:40;;;;;;;;;;;;;;;;;;2200263;67;1164;-72
2021/12/17 03:09:20;;;;;;;;;;;;;;;;;;2200464;67;1167;-72
2021/12/17 03:11:54;;;;;;;;;;;;;;;;;;2199470;59;1795;-72
2021/12/17 03:14:29;;;;;;;;;;;;;;;;;;2198790;67;1238;-71
2021/12/17 03:17:09;;;;;;;;;;;;;;;;;;2201781;59;1993;-71
2021/12/17 03:25:19;;;;;;;;;;;;;;;;;;2197249;67;1980;-72
2021/12/17 03:27:52;;;;;;;;;;;;;;;;;;2198786;67;1152;-72
2021/12/17 03:30:25;;;;;;;;;;;;;;;;;;2198648;59;1708;-72
2021/12/17 03:32:58;;;;;;;;;;;;;;;;;;2197829;67;1211;-72
2021/12/17 03:35:31;;;;;;;;;;;;;;;;;;2198040;59;1230;-72
2021/12/17 03:38:04;;;;;;;;;;;;;;;;;;2198848;67;1178;-72
2021/12/17 03:40:42;;;;;;;;;;;;;;;;;;2199906;67;1210;-72
2021/12/17 03:43:22;;;;;;;;;;;;;;;;;;2198833;59;1245;-71
2021/12/17 03:45:55;;;;;;;;;;;;;;;;;;2200544;60;1928;-71
2021/12/17 03:48:30;;;;;;;;;;;;;;;;;;2199208;59;1222;-72
2021/12/17 03:51:03;;;;;;;;;;;;;;;;;;2197210;59;1569;-71
2021/12/17 03:53:36;;;;;;;;;;;;;;;;;;2197203;67;1170;-72
2021/12/17 03:56:13;;;;;;;;;;;;;;;;;;2199096;59;1176;-72
2021/12/17 03:58:46;;;;;;;;;;;;;;;;;;2200345;59;1419;-72
2021/12/17 04:01:19;;;;;;;;;;;;;;;;;;2198734;59;1206;-72
2021/12/17 04:03:52;;;;;;;;;;;;;;;;;;2199258;67;1144;-72
2021/12/17 04:06:26;;;;;;;;;;;;;;;;;;2198850;67;1991;-72
2021/12/17 04:08:59;;;;;;;;;;;;;;;;;;2200294;59;1375;-72
2021/12/17 04:11:35;;;;;;;;;;;;;;;;;;2198128;59;2066;-72
2021/12/17 04:14:10;;;;;;;;;;;;;;;;;;2199678;59;1197;-72
2021/12/17 04:16:45;;;;;;;;;;;;;;;;;;2199353;67;1130;-72
2021/12/17 04:19:19;;;;;;;;;;;;;;;;;;2198982;59;1631;-72
2021/12/17 04:21:52;;;;;;;;;;;;;;;;;;2199089;67;2102;-71
2021/12/17 04:24:25;;;;;;;;;;;;;;;;;;2198840;59;1273;-72
2021/12/17 04:27:01;;;;;;;;;;;;;;;;;;2198214;67;1979;-71
2021/12/17 04:29:40;;;;;;;;;;;;;;;;;;2199518;67;1496;-72
2021/12/17 04:32:13;;;;;;;;;;;;;;;;;;2197386;59;2065;-72
2021/12/17 04:34:46;;;;;;;;;;;;;;;;;;2199143;67;1321;-72
2021/12/17 04:37:20;;;;;;;;;;;;;;;;;;2199126;67;1175;-72
2021/12/17 04:39:53;;;;;;;;;;;;;;;;;;2198556;59;1204;-72
2021/12/17 04:42:36;;;;;;;;;;;;;;;;;;2198795;59;1088;-71
2021/12/17 04:45:10;;;;;;;;;;;;;;;;;;2198868;59;1931;-72
2021/12/17 04:59:08;;;;;;;;;;;;;;;;;;2199170;59;1565;-71
2021/12/17 05:01:41;;;;;;;;;;;;;;;;;;2199810;59;1358;-71
2021/12/17 05:04:14;;;;;;;;;;;;;;;;;;2198327;67;1093;-71
2021/12/17 05:06:47;;;;;;;;;;;;;;;;;;2199714;59;1916;-71
2021/12/17 05:09:30;;;;;;;;;;;;;;;;;;2199065;59;1372;-71
2021/12/17 05:20:43;;;;;;;;;;;;;;;;;;2199238;59;1613;-71
2021/12/17 05:23:16;;;;;;;;;;;;;;;;;;2199060;59;1262;-72
2021/12/17 05:25:49;;;;;;;;;;;;;;;;;;2198165;67;2000;-71
2021/12/17 05:28:23;;;;;;;;;;;;;;;;;;2199585;67;1195;-71
2021/12/17 05:30:59;;;;;;;;;;;;;;;;;;2197877;59;1652;-71
2021/12/17 05:33:32;;;;;;;;;;;;;;;;;;2198872;67;1202;-72
2021/12/17 05:36:05;;;;;;;;;;;;;;;;;;2198387;67;1188;-72
2021/12/17 05:38:38;;;;;;;;;;;;;;;;;;2197753;59;1095;-72
2021/12/17 05:41:11;;;;;;;;;;;;;;;;;;2199031;67;1080;-71
2021/12/17 05:43:53;;;;;;;;;;;;;;;;;;2198189;67;1278;-72
2021/12/17 05:46:49;;;;;;;;;;;;;;;;;;2197694;67;1981;-71
2021/12/17 05:49:24;;;;;;;;;;;;;;;;;;2199399;67;1195;-71
2021/12/17 05:51:57;;;;;;;;;;;;;;;;;;2196484;59;1775;-71
2021/12/17 05:54:30;;;;;;;;;;;;;;;;;;2196766;67;1309;-72
2021/12/17 05:57:07;;;;;;;;;;;;;;;;;;2199527;59;1406;-72
2021/12/17 05:59:40;;;;;;;;;;;;;;;;;;2199649;59;1121;-71
2021/12/17 06:02:18;;;;;;;;;;;;;;;;;;2198853;59;1222;-72
2021/12/17 06:04:52;;;;;;;;;;;;;;;;;;2197522;59;1278;-72
2021/12/17 06:07:28;;;;;;;;;;;;;;;;;;2197722;67;1925;-72
2021/12/17 06:10:04;;;;;;;;;;;;;;;;;;2198333;59;1629;-72
2021/12/17 06:12:37;;;;;;;;;;;;;;;;;;2199083;59;1303;-72
2021/12/17 06:15:12;;;;;;;;;;;;;;;;;;2198692;67;1275;-72
2021/12/17 06:17:49;;;;;;;;;;;;;;;;;;2200563;67;1403;-72
2021/12/17 06:20:24;;;;;;;;;;;;;;;;;;2200892;59;1723;-72
2021/12/17 06:22:57;;;;;;;;;;;;;;;;;;2198961;59;1303;-72
2021/12/17 06:25:30;;;;;;;;;;;;;;;;;;2198310;67;1937;-71
2021/12/17 06:28:03;;;;;;;;;;;;;;;;;;2198690;67;1128;-71
2021/12/17 06:30:36;;;;;;;;;;;;;;;;;;2198491;59;1618;-72
2021/12/17 06:33:12;;;;;;;;;;;;;;;;;;2197320;59;1207;-72
2021/12/17 06:35:45;;;;;;;;;;;;;;;;;;2199128;59;1247;-72
2021/12/17 06:38:18;;;;;;;;;;;;;;;;;;2200576;66;2387;-71
2021/12/17 06:40:53;;;;;;;;;;;;;;;;;;2199272;67;1238;-71
2021/12/17 06:43:33;;;;;;;;;;;;;;;;;;2198259;67;1161;-72
2021/12/17 06:46:17;;;;;;;;;;;;;;;;;;2199016;59;1990;-71
2021/12/17 06:48:58;;;;;;;;;;;;;;;;;;2198069;67;1099;-72
2021/12/17 07:00:19;;;;;;;;;;;;;;;;;;2197928;67;1258;-72
2021/12/17 07:11:51;;;;;;;;;;;;;;;;;;2198343;59;1700;-72
2021/12/17 07:17:22;;;;;;;;;;;;;;;;;;2200057;67;1030;-71
2021/12/17 07:23:04;;;;;;;;;;;;;;;;;;2199692;63;1405;-72
2021/12/17 07:34:14;;;;;;;;;;;;;;;;;;2199674;67;1108;-72
2021/12/17 07:38:35;;;;;;;;;;;;;;;;;;2198346;59;1136;-72
2021/12/17 07:39:40;;;;;;;;;;;;;;;;;;2199075;67;1175;-72
2021/12/17 07:42:13;;;;;;;;;;;;;;;;;;2199801;67;1242;-72
2021/12/17 07:44:47;;;;;;;;;;;;;;;;;;2200812;59;1179;-72
2021/12/17 07:47:20;;;;;;;;;;;;;;;;;;2199421;67;1973;-72
2021/12/17 07:49:53;;;;;;;;;;;;;;;;;;2198679;67;1100;-72
2021/12/17 07:52:26;;;;;;;;;;;;;;;;;;2197531;59;1526;-71
2021/12/17 07:55:02;;;;;;;;;;;;;;;;;;2199117;59;1188;-71
2021/12/17 07:57:35;;;;;;;;;;;;;;;;;;2200859;59;1423;-71
2021/12/17 08:00:10;;;;;;;;;;;;;;;;;;2197207;59;1566;-72
2021/12/17 08:02:43;;;;;;;;;;;;;;;;;;2198071;59;1361;-72
2021/12/17 08:05:16;;;;;;;;;;;;;;;;;;2198717;59;1195;-71
2021/12/17 08:07:49;;;;;;;;;;;;;;;;;;2200509;59;1983;-71
2021/12/17 08:10:25;;;;;;;;;;;;;;;;;;2202072;53;3718;-70
2021/12/17 08:12:59;;;;;;;;;;;;;;;;;;2217673;58;1707;-69
2021/12/17 08:15:38;;;;;;;;;;;;;;;;;;2217427;59;1568;-70
2021/12/17 08:18:42;;;;;;;;;;;;;;;;;;2219387;58;1254;-69
2021/12/17 08:27:28;;;;;;;;;;;;;;;;;;2213949;66;1932;-71
2021/12/17 08:30:38;;;;;;;;;;;;;;;;;;2220951;59;1555;-70
2021/12/17 08:33:21;;;;;;;;;;;;;;;;;;2220453;66;1228;-70
2021/12/17 08:36:15;;;;;;;;;;;;;;;;;;2218802;59;1245;-71
2021/12/17 08:42:04;;;;;;;;;;;;;;;;;;2217115;58;1945;-70
2021/12/17 08:44:40;;;;;;;;;;;;;;;;;;2219375;59;1166;-70
2021/12/17 08:47:14;;;;;;;;;;;;;;;;;;2219670;66;1935;-70
2021/12/17 08:49:51;;;;;;;;;;;;;;;;;;2219518;58;1227;-70
2021/12/17 08:52:24;;;;;;;;;;;;;;;;;;2219177;58;1758;-70
2021/12/17 08:54:58;;;;;;;;;;;;;;;;;;2220119;58;1151;-70
2021/12/17 08:57:31;;;;;;;;;;;;;;;;;;2218663;58;2898;-70
2021/12/17 09:00:08;;;;;;;;;;;;;;;;;;2218982;59;1230;-71
2021/12/17 09:02:42;;;;;;;;;;;;;;;;;;2218446;59;1300;-71
2021/12/17 09:05:15;;;;;;;;;;;;;;;;;;2219378;59;1603;-71
2021/12/17 09:07:49;;;;;;;;;;;;;;;;;;2219435;58;1928;-71
2021/12/17 09:10:23;;;;;;;;;;;;;;;;;;2217336;58;2552;-71
2021/12/17 09:13:08;;;;;;;;;;;;;;;;;;2217143;58;2699;-71
2021/12/17 09:15:44;;;;;;;;;;;;;;;;;;2217977;59;1734;-70
2021/12/17 09:18:17;;;;;;;;;;;;;;;;;;2218508;58;1851;-70
2021/12/17 09:20:51;;;;;;;;;;;;;;;;;;2218717;60;1553;-71
2021/12/17 09:23:24;;;;;;;;;;;;;;;;;;2218990;58;1735;-71
2021/12/17 09:25:58;;;;;;;;;;;;;;;;;;2217435;59;1984;-70
2021/12/17 09:28:32;;;;;;;;;;;;;;;;;;2219003;66;1244;-71
2021/12/17 09:31:11;;;;;;;;;;;;;;;;;;2219078;58;1622;-71
2021/12/17 09:33:46;;;;;;;;;;;;;;;;;;2221473;59;1598;-71
2021/12/17 09:36:20;;;;;;;;;;;;;;;;;;2218601;58;1555;-71
2021/12/17 09:38:54;;;;;;;;;;;;;;;;;;2219181;66;1102;-70
2021/12/17 09:41:27;;;;;;;;;;;;;;;;;;2219362;66;1167;-70
2021/12/17 09:44:01;;;;;;;;;;;;;;;;;;2219855;66;1218;-71
2021/12/17 09:46:37;;;;;;;;;;;;;;;;;;2219478;59;1925;-71
2021/12/17 09:49:12;;;;;;;;;;;;;;;;;;2219575;66;1246;-71
2021/12/17 09:51:46;;;;;;;;;;;;;;;;;;2218963;58;1727;-71
2021/12/17 09:54:20;;;;;;;;;;;;;;;;;;2220551;66;1119;-71
2021/12/17 09:56:54;;;;;;;;;;;;;;;;;;2220035;58;1442;-71
2021/12/17 09:59:27;;;;;;;;;;;;;;;;;;2219774;58;1654;-71
2021/12/17 10:02:04;;;;;;;;;;;;;;;;;;2218866;58;1250;-71
2021/12/17 10:04:37;;;;;;;;;;;;;;;;;;2220579;59;1258;-71
2021/12/17 10:07:21;;;;;;;;;;;;;;;;;;2217191;58;1941;-71
2021/12/17 10:09:55;;;;;;;;;;;;;;;;;;2218147;58;1628;-71
2021/12/17 10:12:32;;;;;;;;;;;;;;;;;;2216830;58;2443;-71
2021/12/17 10:15:07;;;;;;;;;;;;;;;;;;2218711;66;1188;-71
2021/12/17 10:17:55;;;;;;;;;;;;;;;;;;2220876;59;1203;-71
2021/12/17 10:20:28;;;;;;;;;;;;;;;;;;2220542;58;1717;-71
2021/12/17 10:23:04;;;;;;;;;;;;;;;;;;2219176;58;1335;-70
2021/12/17 10:25:39;;;;;;;;;;;;;;;;;;2220746;58;1155;-71
2021/12/17 10:28:12;;;;;;;;;;;;;;;;;;2219150;59;1929;-71
2021/12/17 10:30:47;;;;;;;;;;;;;;;;;;2219189;58;1558;-71
2021/12/17 10:33:27;;;;;;;;;;;;;;;;;;2221598;66;1322;-71
2021/12/17 10:36:03;;;;;;;;;;;;;;;;;;2219103;58;1238;-71
2021/12/17 10:38:37;;;;;;;;;;;;;;;;;;2220246;66;1120;-71
2021/12/17 10:41:13;;;;;;;;;;;;;;;;;;2220942;66;1208;-71
2021/12/17 10:43:54;;;;;;;;;;;;;;;;;;2219991;59;1101;-71
2021/12/17 10:46:30;;;;;;;;;;;;;;;;;;2221170;66;1970;-71
2021/12/17 10:49:17;;;;;;;;;;;;;;;;;;2219247;66;1220;-70
2021/12/17 10:51:56;;;;;;;;;;;;;;;;;;2219599;58;1475;-71
2021/12/17 10:54:30;;;;;;;;;;;;;;;;;;2220682;66;1365;-70
2021/12/17 10:57:03;;;;;;;;;;;;;;;;;;2220308;58;1370;-71
2021/12/17 10:59:38;;;;;;;;;;;;;;;;;;2222531;66;1132;-71
2021/12/17 11:02:12;;;;;;;;;;;;;;;;;;2220116;58;1276;-71
2021/12/17 11:04:51;;;;;;;;;;;;;;;;;;2220297;59;1262;-71
2021/12/17 11:07:24;;;;;;;;;;;;;;;;;;2219762;59;1936;-70
2021/12/17 11:10:00;;;;;;;;;;;;;;;;;;2221886;59;1634;-71
2021/12/17 11:12:35;;;;;;;;;;;;;;;;;;2218867;58;2413;-71
2021/12/17 11:15:13;;;;;;;;;;;;;;;;;;2219143;59;2346;-71
2021/12/17 11:17:47;;;;;;;;;;;;;;;;;;2219376;58;1721;-71
2021/12/17 11:20:25;;;;;;;;;;;;;;;;;;2219075;58;1805;-71
2021/12/17 11:23:03;;;;;;;;;;;;;;;;;;2219630;58;1272;-71
2021/12/17 11:25:37;;;;;;;;;;;;;;;;;;2220386;66;1202;-71
2021/12/17 11:28:12;;;;;;;;;;;;;;;;;;2219222;66;1982;-71
2021/12/17 11:30:48;;;;;;;;;;;;;;;;;;2219084;58;1815;-71
2021/12/17 11:33:21;;;;;;;;;;;;;;;;;;2221531;66;1107;-71
2021/12/17 11:35:58;;;;;;;;;;;;;;;;;;2220508;66;1284;-71
2021/12/17 11:38:38;;;;;;;;;;;;;;;;;;2219201;59;1387;-71
2021/12/17 11:41:15;;;;;;;;;;;;;;;;;;2219096;59;1331;-70
2021/12/17 11:43:54;;;;;;;;;;;;;;;;;;2219512;58;1255;-71
2021/12/17 11:46:28;;;;;;;;;;;;;;;;;;2219372;66;1195;-71
2021/12/17 11:49:03;;;;;;;;;;;;;;;;;;2219298;66;1975;-71
2021/12/17 11:51:40;;;;;;;;;;;;;;;;;;2219068;58;2084;-72
2021/12/17 11:54:18;;;;;;;;;;;;;;;;;;2218590;58;1893;-72
2021/12/17 11:56:52;;;;;;;;;;;;;;;;;;2218858;58;1328;-70
2021/12/17 11:59:39;;;;;;;;;;;;;;;;;;2219722;58;1281;-71
2021/12/17 12:02:15;;;;;;;;;;;;;;;;;;2217693;58;1404;-70
2021/12/17 12:04:57;;;;;;;;;;;;;;;;;;2219714;66;1258;-71
2021/12/17 12:07:37;;;;;;;;;;;;;;;;;;2219159;59;1928;-71
2021/12/17 12:10:22;;;;;;;;;;;;;;;;;;2218805;59;1243;-70
2021/12/17 12:12:57;;;;;;;;;;;;;;;;;;2219136;58;2690;-71
2021/12/17 12:15:32;;;;;;;;;;;;;;;;;;2217067;58;2652;-70
2021/12/17 12:18:07;;;;;;;;;;;;;;;;;;2219685;59;1430;-70
2021/12/17 12:20:50;;;;;;;;;;;;;;;;;;2219395;66;1551;-70
2021/12/17 12:23:27;;;;;;;;;;;;;;;;;;2218473;59;1147;-70
2021/12/17 12:26:14;;;;;;;;;;;;;;;;;;2220342;66;1167;-71
2021/12/17 12:28:52;;;;;;;;;;;;;;;;;;2219287;66;1942;-70
2021/12/17 12:31:42;;;;;;;;;;;;;;;;;;2218900;58;1479;-71
2021/12/17 12:34:16;;;;;;;;;;;;;;;;;;2218889;59;1480;-71
2021/12/17 12:36:51;;;;;;;;;;;;;;;;;;2219607;58;1436;-71
2021/12/17 12:39:29;;;;;;;;;;;;;;;;;;2219350;66;1278;-71
2021/12/17 12:42:04;;;;;;;;;;;;;;;;;;2220076;58;1726;-71
2021/12/17 12:44:56;;;;;;;;;;;;;;;;;;2219790;66;1077;-71
2021/12/17 12:47:47;;;;;;;;;;;;;;;;;;2220372;66;1943;-71
2021/12/17 12:50:23;;;;;;;;;;;;;;;;;;2219415;66;1237;-71
2021/12/17 12:52:57;;;;;;;;;;;;;;;;;;2219344;59;1308;-70
2021/12/17 12:55:35;;;;;;;;;;;;;;;;;;2218740;58;1812;-71
2021/12/17 12:58:12;;;;;;;;;;;;;;;;;;2220007;58;2171;-71
2021/12/17 13:00:48;;;;;;;;;;;;;;;;;;2220118;66;1342;-71
2021/12/17 13:03:26;;;;;;;;;;;;;;;;;;2220011;58;1767;-70
2021/12/17 13:06:00;;;;;;;;;;;;;;;;;;2219952;66;1275;-71
2021/12/17 13:08:35;;;;;;;;;;;;;;;;;;2218779;58;1929;-71
2021/12/17 13:11:12;;;;;;;;;;;;;;;;;;2221552;58;1317;-70
2021/12/17 13:13:51;;;;;;;;;;;;;;;;;;2219318;58;1314;-71
2021/12/17 13:16:38;;;;;;;;;;;;;;;;;;2218645;66;2426;-71
2021/12/17 13:22:14;;;;;;;;;;;;;;;;;;2220080;58;1696;-71
2021/12/17 13:24:47;;;;;;;;;;;;;;;;;;2218090;58;1897;-70
2021/12/17 13:27:23;;;;;;;;;;;;;;;;;;2218967;66;1936;-71
2021/12/17 13:30:00;;;;;;;;;;;;;;;;;;2220311;58;1349;-70
2021/12/17 13:32:34;;;;;;;;;;;;;;;;;;2215711;58;1468;-71
2021/12/17 13:35:17;;;;;;;;;;;;;;;;;;2219451;58;1270;-71
2021/12/17 13:37:52;;;;;;;;;;;;;;;;;;2218015;59;1253;-70
2021/12/17 13:40:27;;;;;;;;;;;;;;;;;;2219576;66;1202;-71
2021/12/17 13:43:03;;;;;;;;;;;;;;;;;;2218191;58;2145;-71
2021/12/17 13:45:37;;;;;;;;;;;;;;;;;;2218631;66;1078;-70
2021/12/17 13:48:16;;;;;;;;;;;;;;;;;;2220664;66;1972;-70
2021/12/17 13:50:50;;;;;;;;;;;;;;;;;;2219814;66;1306;-70
2021/12/17 13:53:24;;;;;;;;;;;;;;;;;;2218649;66;1149;-71
2021/12/17 13:55:57;;;;;;;;;;;;;;;;;;2219406;66;1586;-70
2021/12/17 13:58:39;;;;;;;;;;;;;;;;;;2219107;58;1467;-71
2021/12/17 14:01:22;;;;;;;;;;;;;;;;;;2217942;58;1825;-71
2021/12/17 14:03:55;;;;;;;;;;;;;;;;;;2217286;58;1834;-71
2021/12/17 14:06:35;;;;;;;;;;;;;;;;;;2215719;58;1999;-70
2021/12/17 14:09:09;;;;;;;;;;;;;;;;;;2216517;58;1999;-70
2021/12/17 14:11:42;;;;;;;;;;;;;;;;;;2211259;54;3574;-70
2021/12/17 14:14:33;;;;;;;;;;;;;;;;;;2200334;58;2458;-71
2021/12/17 14:17:10;;;;;;;;;;;;;;;;;;2201739;60;1212;-71
2021/12/17 14:19:44;;;;;;;;;;;;;;;;;;2201914;59;1279;-70
2021/12/17 14:22:30;;;;;;;;;;;;;;;;;;2203521;59;1328;-70
2021/12/17 14:25:23;;;;;;;;;;;;;;;;;;2203541;66;1179;-71
2021/12/17 14:27:57;;;;;;;;;;;;;;;;;;2202504;59;1930;-70
2021/12/17 14:30:35;;;;;;;;;;;;;;;;;;2203255;59;1369;-71
2021/12/17 14:33:10;;;;;;;;;;;;;;;;;;2202295;66;1148;-71
2021/12/17 14:35:48;;;;;;;;;;;;;;;;;;2202003;59;1323;-71
2021/12/17 14:38:22;;;;;;;;;;;;;;;;;;2202410;59;1211;-71
2021/12/17 14:40:59;;;;;;;;;;;;;;;;;;2202396;66;1255;-71
2021/12/17 14:43:38;;;;;;;;;;;;;;;;;;2202216;67;1164;-71
2021/12/17 14:46:19;;;;;;;;;;;;;;;;;;2200706;59;1481;-71
2021/12/17 14:49:14;;;;;;;;;;;;;;;;;;2201787;67;1992;-71
2021/12/17 14:58:14;;;;;;;;;;;;;;;;;;2202323;59;1692;-71
2021/12/17 15:00:27;;;;;;;;;;;;;;;;;;2201967;59;1356;-71
2021/12/17 15:03:19;;;;;;;;;;;;;;;;;;2203376;59;1746;-71
2021/12/17 15:05:52;;;;;;;;;;;;;;;;;;2202153;59;1358;-71
2021/12/17 15:08:26;;;;;;;;;;;;;;;;;;2202302;67;1926;-71
2021/12/17 15:11:02;;;;;;;;;;;;;;;;;;2202796;59;1217;-71
2021/12/17 15:13:35;;;;;;;;;;;;;;;;;;2202699;59;1393;-71
2021/12/17 15:16:08;;;;;;;;;;;;;;;;;;2201557;59;1745;-71
2021/12/17 15:18:44;;;;;;;;;;;;;;;;;;2202598;59;1437;-71
2021/12/17 15:21:17;;;;;;;;;;;;;;;;;;2201923;59;1715;-71
2021/12/17 15:23:51;;;;;;;;;;;;;;;;;;2203029;59;1414;-71
2021/12/17 15:26:24;;;;;;;;;;;;;;;;;;2203051;67;1231;-71
2021/12/17 15:28:57;;;;;;;;;;;;;;;;;;2202552;59;1987;-71
2021/12/17 15:31:31;;;;;;;;;;;;;;;;;;2202081;59;1426;-71
2021/12/17 15:34:07;;;;;;;;;;;;;;;;;;2202822;59;1173;-71
2021/12/17 15:36:40;;;;;;;;;;;;;;;;;;2203334;66;1095;-71
2021/12/17 15:39:13;;;;;;;;;;;;;;;;;;2202900;67;1175;-71
2021/12/17 15:41:46;;;;;;;;;;;;;;;;;;2203293;59;1439;-72
2021/12/17 15:44:19;;;;;;;;;;;;;;;;;;2203025;58;1036;-71
2021/12/17 15:46:53;;;;;;;;;;;;;;;;;;2201883;58;1780;-71
2021/12/17 15:49:28;;;;;;;;;;;;;;;;;;2200939;59;1969;-71
2021/12/17 15:52:02;;;;;;;;;;;;;;;;;;2202443;67;1309;-71
2021/12/17 15:54:35;;;;;;;;;;;;;;;;;;2202832;67;1155;-71
2021/12/17 15:57:08;;;;;;;;;;;;;;;;;;2201635;59;1682;-72
2021/12/17 15:59:42;;;;;;;;;;;;;;;;;;2203237;67;1148;-71
2021/12/17 16:02:15;;;;;;;;;;;;;;;;;;2202977;58;1734;-71
2021/12/17 16:04:51;;;;;;;;;;;;;;;;;;2202374;67;1198;-71
2021/12/17 16:07:24;;;;;;;;;;;;;;;;;;2201941;59;1716;-71
2021/12/17 16:10:56;;;;;;;;;;;;;;;;;;2202883;67;1943;-71
2021/12/17 16:18:52;;;;;;;;;;;;;;;;;;2201548;59;1653;-70
2021/12/17 16:21:25;;;;;;;;;;;;;;;;;;2200211;59;1966;-70
2021/12/17 16:23:58;;;;;;;;;;;;;;;;;;2202577;59;1301;-71
2021/12/17 16:26:31;;;;;;;;;;;;;;;;;;2202187;59;1190;-70
2021/12/17 16:29:05;;;;;;;;;;;;;;;;;;2202403;66;1983;-70
2021/12/17 16:31:38;;;;;;;;;;;;;;;;;;2201816;59;1703;-70
2021/12/17 16:34:11;;;;;;;;;;;;;;;;;;2202794;59;1802;-71
2021/12/17 16:36:47;;;;;;;;;;;;;;;;;;2206926;66;1270;-71
2021/12/17 16:39:20;;;;;;;;;;;;;;;;;;2202533;66;1224;-71
2021/12/17 16:41:54;;;;;;;;;;;;;;;;;;2202471;59;1270;-71
2021/12/17 16:44:40;;;;;;;;;;;;;;;;;;2201927;59;1751;-71
2021/12/17 16:47:15;;;;;;;;;;;;;;;;;;2201688;59;1226;-71
2021/12/17 16:49:48;;;;;;;;;;;;;;;;;;2202870;66;1929;-71
2021/12/17 16:52:26;;;;;;;;;;;;;;;;;;2202842;67;1338;-71
2021/12/17 16:55:01;;;;;;;;;;;;;;;;;;2202738;59;1208;-71
2021/12/17 16:57:34;;;;;;;;;;;;;;;;;;2201535;59;1762;-71
2021/12/17 17:00:08;;;;;;;;;;;;;;;;;;2201582;59;1837;-71
2021/12/17 17:02:41;;;;;;;;;;;;;;;;;;2202194;59;1228;-71
2021/12/17 17:05:15;;;;;;;;;;;;;;;;;;2202549;66;1254;-71
2021/12/17 17:07:51;;;;;;;;;;;;;;;;;;2202819;66;1242;-71
2021/12/17 17:10:29;;;;;;;;;;;;;;;;;;2202598;59;1985;-71
2021/12/17 17:13:03;;;;;;;;;;;;;;;;;;2203040;59;1205;-71
2021/12/17 17:15:37;;;;;;;;;;;;;;;;;;2202279;67;1096;-71
2021/12/17 17:18:12;;;;;;;;;;;;;;;;;;2202405;59;1448;-71
2021/12/17 17:20:45;;;;;;;;;;;;;;;;;;2202713;66;1175;-71
2021/12/17 17:23:21;;;;;;;;;;;;;;;;;;2202416;59;1306;-71
2021/12/17 17:25:54;;;;;;;;;;;;;;;;;;2202925;66;1133;-70
2021/12/17 17:28:27;;;;;;;;;;;;;;;;;;2202367;58;1256;-71
2021/12/17 17:31:00;;;;;;;;;;;;;;;;;;2202943;59;1995;-71
2021/12/17 17:33:34;;;;;;;;;;;;;;;;;;2202563;66;1400;-71
2021/12/17 17:36:07;;;;;;;;;;;;;;;;;;2202423;66;1229;-71
2021/12/17 17:38:43;;;;;;;;;;;;;;;;;;2202303;59;1160;-71
2021/12/17 17:41:17;;;;;;;;;;;;;;;;;;2203090;67;1234;-71
2021/12/17 17:43:52;;;;;;;;;;;;;;;;;;2202981;59;1421;-71
2021/12/17 17:46:26;;;;;;;;;;;;;;;;;;2202706;58;1226;-71
2021/12/17 17:48:59;;;;;;;;;;;;;;;;;;2203078;58;1940;-71
2021/12/17 17:51:33;;;;;;;;;;;;;;;;;;2202413;66;1582;-71
2021/12/17 17:54:09;;;;;;;;;;;;;;;;;;2202913;67;1255;-71
2021/12/17 17:56:42;;;;;;;;;;;;;;;;;;2203129;58;1517;-71
2021/12/17 17:59:15;;;;;;;;;;;;;;;;;;2202238;67;1278;-71
2021/12/17 18:01:48;;;;;;;;;;;;;;;;;;2202951;59;1260;-71
2021/12/17 18:04:21;;;;;;;;;;;;;;;;;;2202872;59;1574;-70
2021/12/17 18:06:55;;;;;;;;;;;;;;;;;;2203078;59;1242;-71
2021/12/17 18:09:31;;;;;;;;;;;;;;;;;;2202413;58;2000;-71
2021/12/17 18:12:05;;;;;;;;;;;;;;;;;;2202240;59;1234;-71
2021/12/17 18:14:38;;;;;;;;;;;;;;;;;;2202010;59;1195;-71
2021/12/17 18:17:12;;;;;;;;;;;;;;;;;;2202812;67;1311;-71
2021/12/17 18:19:45;;;;;;;;;;;;;;;;;;2202755;59;1372;-71
2021/12/17 18:22:18;;;;;;;;;;;;;;;;;;2202866;67;1371;-71
2021/12/17 18:24:54;;;;;;;;;;;;;;;;;;2202432;59;1206;-71
2021/12/17 18:27:28;;;;;;;;;;;;;;;;;;2202473;66;1230;-71
2021/12/17 18:30:01;;;;;;;;;;;;;;;;;;2202597;66;1944;-71
2021/12/17 18:32:34;;;;;;;;;;;;;;;;;;2202502;59;1333;-71
2021/12/17 18:35:08;;;;;;;;;;;;;;;;;;2202224;67;1173;-71
2021/12/17 18:37:41;;;;;;;;;;;;;;;;;;2202542;59;1117;-71
2021/12/17 18:40:22;;;;;;;;;;;;;;;;;;2203165;59;1166;-72
2021/12/17 18:45:47;;;;;;;;;;;;;;;;;;2203241;67;1059;-71
2021/12/17 18:48:22;;;;;;;;;;;;;;;;;;2203354;59;1215;-71
2021/12/17 18:50:55;;;;;;;;;;;;;;;;;;2203319;66;1979;-71
2021/12/17 18:53:28;;;;;;;;;;;;;;;;;;2203098;66;1249;-71
2021/12/17 18:56:06;;;;;;;;;;;;;;;;;;2203166;58;1586;-71
2021/12/17 18:58:39;;;;;;;;;;;;;;;;;;2203261;59;1354;-71
2021/12/17 19:01:12;;;;;;;;;;;;;;;;;;2203079;59;1183;-70
2021/12/17 19:03:45;;;;;;;;;;;;;;;;;;2202680;66;1271;-70
2021/12/17 19:06:18;;;;;;;;;;;;;;;;;;2203330;58;1314;-71
2021/12/17 19:08:52;;;;;;;;;;;;;;;;;;2203481;66;1203;-70
2021/12/17 19:11:27;;;;;;;;;;;;;;;;;;2203444;59;1920;-71
2021/12/17 19:14:01;;;;;;;;;;;;;;;;;;2203552;66;1226;-71
2021/12/17 19:16:34;;;;;;;;;;;;;;;;;;2203255;67;1112;-71
2021/12/17 19:19:12;;;;;;;;;;;;;;;;;;2205337;59;1464;-70
2021/12/17 19:21:55;;;;;;;;;;;;;;;;;;2203027;59;1147;-70
2021/12/17 19:24:28;;;;;;;;;;;;;;;;;;2202708;59;1348;-71
2021/12/17 19:27:04;;;;;;;;;;;;;;;;;;2203214;66;1090;-71
2021/12/17 19:29:39;;;;;;;;;;;;;;;;;;2203077;67;1924;-71
2021/12/17 19:32:12;;;;;;;;;;;;;;;;;;2203271;66;1294;-70
2021/12/17 19:34:45;;;;;;;;;;;;;;;;;;2202590;66;1142;-71
2021/12/17 19:37:18;;;;;;;;;;;;;;;;;;2202925;59;1148;-71
2021/12/17 19:39:52;;;;;;;;;;;;;;;;;;2203072;58;1356;-70
2021/12/17 19:42:29;;;;;;;;;;;;;;;;;;2202954;67;1269;-71
2021/12/17 19:45:02;;;;;;;;;;;;;;;;;;2203317;66;1222;-71
2021/12/17 19:47:53;;;;;;;;;;;;;;;;;;2203190;67;1129;-70
2021/12/17 19:50:28;;;;;;;;;;;;;;;;;;2202857;58;1933;-71
2021/12/17 19:53:01;;;;;;;;;;;;;;;;;;2203382;66;1266;-71
2021/12/17 19:55:35;;;;;;;;;;;;;;;;;;2203091;67;1214;-70
2021/12/17 19:58:11;;;;;;;;;;;;;;;;;;2203351;59;2282;-70
2021/12/17 20:00:44;;;;;;;;;;;;;;;;;;2202981;59;1602;-70
2021/12/17 20:03:18;;;;;;;;;;;;;;;;;;2203252;59;1329;-71
2021/12/17 20:05:51;;;;;;;;;;;;;;;;;;2202699;66;1408;-71
2021/12/17 20:08:24;;;;;;;;;;;;;;;;;;2202694;59;1103;-71
2021/12/17 20:10:58;;;;;;;;;;;;;;;;;;2204912;59;3630;-70
2021/12/17 20:13:34;;;;;;;;;;;;;;;;;;2199167;59;1241;-70
2021/12/17 20:16:08;;;;;;;;;;;;;;;;;;2200930;59;1709;-70
2021/12/17 20:18:42;;;;;;;;;;;;;;;;;;2202177;59;1311;-70
2021/12/17 20:21:20;;;;;;;;;;;;;;;;;;2206870;59;1224;-70
2021/12/17 20:24:02;;;;;;;;;;;;;;;;;;2218473;58;2600;-70
2021/12/17 20:26:43;;;;;;;;;;;;;;;;;;2217739;66;1329;-70
2021/12/17 20:29:22;;;;;;;;;;;;;;;;;;2218441;58;1374;-70
2021/12/17 20:31:56;;;;;;;;;;;;;;;;;;2218232;66;1941;-70
2021/12/17 20:34:30;;;;;;;;;;;;;;;;;;2218718;66;1313;-70
2021/12/17 20:37:03;;;;;;;;;;;;;;;;;;2217590;66;1454;-70
2021/12/17 20:39:37;;;;;;;;;;;;;;;;;;2218373;58;1255;-70
2021/12/17 20:42:15;;;;;;;;;;;;;;;;;;2218061;66;1171;-70